createdAt,value
2023-01-29T00:02:46.692Z,101125.31
2023-01-29T00:05:49.597Z,101131.47
2023-01-29T00:08:52.505Z,101134.56
2023-01-29T00:11:55.474Z,101140.75
2023-01-29T00:14:58.225Z,101141.28
2023-01-29T00:18:01.061Z,101144.78
2023-01-29T00:21:04.204Z,101142.75
2023-01-29T00:24:07.357Z,101148.19
2023-01-29T00:27:10.372Z,101148.13
2023-01-29T00:30:14.670Z,101147.34
2023-01-29T00:33:18.120Z,101151.97
2023-01-29T00:36:22.531Z,101153.47
2023-01-29T00:39:31.489Z,101129.97
2023-01-29T00:43:03.685Z,101151.56
2023-01-29T00:46:07.905Z,101157.69
2023-01-29T00:49:11.284Z,101153.72
2023-01-29T00:52:25.924Z,101152.94
2023-01-29T00:55:28.931Z,101138.59
2023-01-29T00:58:34.457Z,101143.53
2023-01-29T01:01:56.212Z,101152.94
2023-01-29T01:04:58.967Z,101159.78
2023-01-29T01:08:02.286Z,101158.50
2023-01-29T01:11:06.509Z,101143.50
2023-01-29T01:14:09.492Z,101157.78
2023-01-29T01:17:12.337Z,101166.38
2023-01-29T01:20:16.263Z,101155.31
2023-01-29T01:23:19.916Z,101159.53
2023-01-29T01:26:22.837Z,101164.94
2023-01-29T01:29:25.483Z,101157.00
2023-01-29T01:32:28.774Z,101164.78
2023-01-29T01:35:31.438Z,101160.88
2023-01-29T01:38:34.513Z,101163.03
2023-01-29T01:41:37.140Z,101151.94
2023-01-29T01:44:52.015Z,101169.59
2023-01-29T01:48:01.613Z,101167.25
2023-01-29T01:51:06.713Z,101165.97
2023-01-29T01:54:24.201Z,101149.47
2023-01-29T01:57:30.914Z,101172.53
2023-01-29T02:00:34.502Z,101149.91
2023-01-29T02:04:05.216Z,101176.94
2023-01-29T02:07:32.663Z,101154.06
2023-01-29T02:10:47.190Z,101163.78
2023-01-29T02:13:53.720Z,101173.38
2023-01-29T02:17:01.985Z,101159.97
2023-01-29T02:20:20.902Z,101174.31
2023-01-29T02:23:55.676Z,101181.94
2023-01-29T02:27:20.039Z,101176.06
2023-01-29T02:30:38.180Z,101189.56
2023-01-29T02:33:52.990Z,101194.38
2023-01-29T02:37:09.554Z,101203.66
2023-01-29T02:40:21.533Z,101204.41
2023-01-29T02:43:40.875Z,101207.53
2023-01-29T02:47:04.154Z,101211.44
2023-01-29T02:50:17.626Z,101221.19
2023-01-29T02:53:45.977Z,101229.38
2023-01-29T02:56:51.468Z,101229.34
2023-01-29T03:00:02.411Z,101238.59
2023-01-29T03:03:18.129Z,101237.88
2023-01-29T03:06:37.005Z,101234.22
2023-01-29T03:09:52.861Z,101241.53
2023-01-29T03:13:05.591Z,101209.03
2023-01-29T03:16:20.558Z,101225.94
2023-01-29T03:19:50.973Z,101237.63
2023-01-29T03:23:01.383Z,101237.47
2023-01-29T03:26:25.197Z,101244.56
2023-01-29T03:29:50.692Z,101238.69
2023-01-29T03:32:57.198Z,101235.19
2023-01-29T03:36:09.108Z,101239.69
2023-01-29T03:39:14.073Z,101239.12
2023-01-29T03:42:27.258Z,101237.88
2023-01-29T03:46:08.450Z,101237.53
2023-01-29T03:49:11.064Z,101247.19
2023-01-29T03:52:19.465Z,101249.25
2023-01-29T03:55:46.777Z,101245.06
2023-01-29T03:59:31.135Z,101235.78
2023-01-29T04:02:42.865Z,101239.97
2023-01-29T04:05:52.166Z,101236.19
2023-01-29T04:09:22.199Z,101241.03
2023-01-29T04:12:36.256Z,101241.62
2023-01-29T04:15:49.769Z,101242.06
2023-01-29T04:18:54.843Z,101235.75
2023-01-29T04:22:06.599Z,101235.31
2023-01-29T04:25:17.440Z,101213.16
2023-01-29T04:28:50.673Z,101238.88
2023-01-29T04:32:24.092Z,101235.44
2023-01-29T04:35:31.523Z,101242.69
2023-01-29T04:38:41.533Z,101239.28
2023-01-29T04:41:53.141Z,101222.59
2023-01-29T04:45:08.211Z,101248.41
2023-01-29T04:48:27.110Z,101254.03
2023-01-29T04:51:58.903Z,101257.69
2023-01-29T04:55:06.007Z,101256.84
2023-01-29T04:58:18.459Z,101263.94
2023-01-29T05:01:25.827Z,101258.81
2023-01-29T05:04:32.821Z,101248.09
2023-01-29T05:07:38.358Z,101246.81
2023-01-29T05:10:42.577Z,101269.09
2023-01-29T05:13:48.376Z,101250.28
2023-01-29T05:16:54.160Z,101273.56
2023-01-29T05:19:57.342Z,101257.69
2023-01-29T05:23:00.207Z,101280.59
2023-01-29T05:26:03.981Z,101273.25
2023-01-29T05:29:07.217Z,101281.28
2023-01-29T05:32:09.977Z,101275.34
2023-01-29T05:35:13.479Z,101266.69
2023-01-29T05:38:17.423Z,101294.72
2023-01-29T05:41:21.158Z,101286.00
2023-01-29T05:44:23.820Z,101299.78
2023-01-29T05:47:26.704Z,101294.94
2023-01-29T05:50:30.299Z,101296.12
2023-01-29T05:53:33.859Z,101297.72
2023-01-29T05:56:36.532Z,101280.16
2023-01-29T05:59:39.632Z,101302.19
2023-01-29T06:02:42.358Z,101312.59
2023-01-29T06:05:45.336Z,101315.00
2023-01-29T06:08:48.305Z,101299.34
2023-01-29T06:11:51.656Z,101304.56
2023-01-29T06:14:54.443Z,101307.44
2023-01-29T06:17:57.692Z,101312.38
2023-01-29T06:21:02.657Z,101281.41
2023-01-29T06:24:06.207Z,101322.84
2023-01-29T06:27:08.848Z,101316.88
2023-01-29T06:30:12.428Z,101318.63
2023-01-29T06:33:15.321Z,101329.88
2023-01-29T06:36:19.259Z,101301.75
2023-01-29T06:39:21.892Z,101320.06
2023-01-29T06:42:28.101Z,101324.53
2023-01-29T06:45:30.952Z,101332.09
2023-01-29T06:48:33.923Z,101332.78
2023-01-29T06:51:36.918Z,101332.22
2023-01-29T06:54:40.050Z,101310.41
2023-01-29T06:57:42.728Z,101320.97
2023-01-29T07:00:45.922Z,101332.25
2023-01-29T07:03:51.346Z,101333.94
2023-01-29T07:06:54.319Z,101339.22
2023-01-29T07:09:57.300Z,101345.16
2023-01-29T07:13:00.292Z,101339.50
2023-01-29T07:16:06.619Z,101337.16
2023-01-29T07:19:09.489Z,101342.19
2023-01-29T07:22:12.129Z,101343.69
2023-01-29T07:25:15.150Z,101350.62
2023-01-29T07:28:18.649Z,101356.34
2023-01-29T07:31:23.087Z,101331.81
2023-01-29T07:34:25.866Z,101346.09
2023-01-29T07:37:28.905Z,101359.03
2023-01-29T07:40:32.772Z,101353.69
2023-01-29T07:43:35.991Z,101356.56
2023-01-29T07:46:38.621Z,101354.44
2023-01-29T07:49:41.739Z,101352.94
2023-01-29T07:52:44.642Z,101353.59
2023-01-29T07:55:47.604Z,101345.53
2023-01-29T07:58:50.268Z,101340.22
2023-01-29T08:01:53.246Z,101331.81
2023-01-29T08:04:56.199Z,101364.16
2023-01-29T08:08:06.603Z,101368.22
2023-01-29T08:11:10.628Z,101354.66
2023-01-29T08:14:13.280Z,101374.69
2023-01-29T08:17:16.262Z,101372.91
2023-01-29T08:20:20.072Z,101369.94
2023-01-29T08:23:24.278Z,101378.59
2023-01-29T08:26:27.433Z,101385.87
2023-01-29T08:29:30.302Z,101378.94
2023-01-29T08:32:32.951Z,101382.16
2023-01-29T08:35:36.653Z,101362.00
2023-01-29T08:38:39.614Z,101376.31
2023-01-29T08:41:42.458Z,101351.50
2023-01-29T08:44:45.026Z,101377.53
2023-01-29T08:47:49.979Z,101391.28
2023-01-29T08:50:52.849Z,101393.69
2023-01-29T08:53:56.025Z,101390.75
2023-01-29T08:56:58.656Z,101388.12
2023-01-29T09:00:01.750Z,101399.34
2023-01-29T09:03:05.118Z,101390.31
2023-01-29T09:06:10.805Z,101389.91
2023-01-29T09:09:14.607Z,101388.12
2023-01-29T09:12:17.485Z,101355.06
2023-01-29T09:15:20.270Z,101388.28
2023-01-29T09:18:24.645Z,101376.31
2023-01-29T09:21:27.288Z,101375.63
2023-01-29T09:24:30.624Z,101378.75
2023-01-29T09:27:33.428Z,101353.91
2023-01-29T09:30:38.214Z,101365.94
2023-01-29T09:33:40.950Z,101351.03
2023-01-29T09:36:44.147Z,101364.47
2023-01-29T09:39:46.993Z,101362.00
2023-01-29T09:42:55.821Z,101369.31
2023-01-29T09:46:08.093Z,101372.94
2023-01-29T09:49:41.774Z,101379.69
2023-01-29T09:52:51.929Z,101387.00
2023-01-29T09:56:16.113Z,101380.50
2023-01-29T09:59:22.469Z,101386.88
2023-01-29T10:03:03.234Z,101380.28
2023-01-29T10:06:25.777Z,101391.75
2023-01-29T10:09:44.423Z,101381.50
2023-01-29T10:13:42.717Z,101377.81
2023-01-29T10:17:14.784Z,101379.97
2023-01-29T10:20:42.209Z,101377.50
2023-01-29T10:23:56.501Z,101371.66
2023-01-29T10:27:01.108Z,101370.16
2023-01-29T10:30:09.574Z,101373.06
2023-01-29T10:33:19.380Z,101362.47
2023-01-29T10:36:28.768Z,101346.22
2023-01-29T10:39:31.823Z,101371.41
2023-01-29T10:42:48.497Z,101362.47
2023-01-29T10:46:26.596Z,101374.97
2023-01-29T10:49:41.281Z,101371.59
2023-01-29T10:53:21.193Z,101370.28
2023-01-29T10:56:26.834Z,101359.75
2023-01-29T11:00:00.043Z,101361.31
2023-01-29T11:03:30.880Z,101359.91
2023-01-29T11:06:35.756Z,101360.47
2023-01-29T11:09:50.402Z,101337.34
2023-01-29T11:12:54.421Z,101338.91
2023-01-29T11:15:57.244Z,101359.81
2023-01-29T11:19:01.677Z,101363.66
2023-01-29T11:22:04.556Z,101356.63
2023-01-29T11:25:17.845Z,101332.88
2023-01-29T11:28:43.064Z,101362.72
2023-01-29T11:31:46.145Z,101356.72
2023-01-29T11:35:19.507Z,101361.81
2023-01-29T11:38:28.529Z,101355.16
2023-01-29T11:41:43.847Z,101352.25
2023-01-29T11:44:47.372Z,101342.84
2023-01-29T11:47:57.006Z,101344.97
2023-01-29T11:51:01.425Z,101346.25
2023-01-29T11:54:05.711Z,101313.72
2023-01-29T11:57:21.111Z,101331.94
2023-01-29T12:00:29.878Z,101334.38
2023-01-29T12:03:48.616Z,101336.31
2023-01-29T12:06:53.601Z,101324.56
2023-01-29T12:09:59.735Z,101326.47
2023-01-29T12:13:10.827Z,101328.81
2023-01-29T12:16:16.846Z,101323.78
2023-01-29T12:19:33.402Z,101315.78
2023-01-29T12:22:49.999Z,101311.22
2023-01-29T12:26:07.592Z,101296.16
2023-01-29T12:29:25.648Z,101297.69
2023-01-29T12:33:09.027Z,101291.53
2023-01-29T12:36:21.752Z,101301.66
2023-01-29T12:39:24.372Z,101296.06
2023-01-29T12:42:27.831Z,101268.50
2023-01-29T12:45:32.955Z,101293.69
2023-01-29T12:48:40.092Z,101281.69
2023-01-29T12:52:07.838Z,101292.94
2023-01-29T12:55:21.779Z,101289.88
2023-01-29T12:58:31.376Z,101294.13
2023-01-29T13:01:43.076Z,101300.78
2023-01-29T13:04:53.907Z,101297.09
2023-01-29T13:08:28.873Z,101290.44
2023-01-29T13:11:39.673Z,101281.63
2023-01-29T13:14:46.456Z,101293.81
2023-01-29T13:17:54.826Z,101293.22
2023-01-29T13:21:00.199Z,101294.97
2023-01-29T13:24:16.367Z,101270.84
2023-01-29T13:27:28.631Z,101284.72
2023-01-29T13:30:36.504Z,101288.09
2023-01-29T13:33:42.097Z,101279.19
2023-01-29T13:36:48.036Z,101273.69
2023-01-29T13:39:53.266Z,101279.22
2023-01-29T13:42:59.938Z,101268.44
2023-01-29T13:46:18.503Z,101274.16
2023-01-29T13:49:27.993Z,101275.09
2023-01-29T13:52:43.303Z,101278.13
2023-01-29T13:55:45.893Z,101281.41
2023-01-29T13:58:58.406Z,101280.31
2023-01-29T14:02:04.071Z,101284.91
2023-01-29T14:05:31.081Z,101285.09
2023-01-29T14:08:39.354Z,101282.91
2023-01-29T14:11:48.620Z,101286.44
2023-01-29T14:15:15.106Z,101248.75
2023-01-29T14:18:21.220Z,101264.72
2023-01-29T14:21:32.677Z,101281.50
2023-01-29T14:24:35.641Z,101279.22
2023-01-29T14:27:38.434Z,101279.28
2023-01-29T14:30:48.246Z,101283.06
2023-01-29T14:33:53.190Z,101261.28
2023-01-29T14:37:01.402Z,101285.56
2023-01-29T14:40:16.655Z,101283.44
2023-01-29T14:43:21.075Z,101278.00
2023-01-29T14:46:35.891Z,101264.28
2023-01-29T14:50:24.129Z,101269.53
2023-01-29T14:53:58.764Z,101254.78
2023-01-29T14:57:05.977Z,101259.81
2023-01-29T15:00:27.016Z,101256.69
2023-01-29T15:03:39.725Z,101259.72
2023-01-29T15:06:48.287Z,101259.06
2023-01-29T15:10:21.949Z,101268.81
2023-01-29T15:13:37.394Z,101263.34
2023-01-29T15:16:57.530Z,101251.31
2023-01-29T15:20:00.459Z,101255.66
2023-01-29T15:23:04.846Z,101259.56
2023-01-29T15:26:11.710Z,101254.06
2023-01-29T15:29:24.815Z,101251.28
2023-01-29T15:32:32.429Z,101237.22
2023-01-29T15:35:36.981Z,101256.75
2023-01-29T15:38:39.653Z,101267.50
2023-01-29T15:41:43.876Z,101277.09
2023-01-29T15:44:46.823Z,101279.78
2023-01-29T15:47:50.886Z,101270.72
2023-01-29T15:50:55.392Z,101276.47
2023-01-29T15:54:05.780Z,101268.56
2023-01-29T15:57:19.249Z,101267.94
2023-01-29T16:00:28.728Z,101281.37
2023-01-29T16:03:34.478Z,101251.00
2023-01-29T16:06:40.488Z,101292.06
2023-01-29T16:09:43.898Z,101271.59
2023-01-29T16:12:51.548Z,101293.66
2023-01-29T16:16:03.090Z,101292.00
2023-01-29T16:19:21.548Z,101287.44
2023-01-29T16:22:29.089Z,101296.81
2023-01-29T16:25:34.070Z,101272.75
2023-01-29T16:28:41.959Z,101291.13
2023-01-29T16:31:47.363Z,101295.94
2023-01-29T16:34:56.305Z,101300.78
2023-01-29T16:38:04.661Z,101295.53
2023-01-29T16:41:15.435Z,101304.03
2023-01-29T16:44:21.260Z,101276.88
2023-01-29T16:47:29.604Z,101314.16
2023-01-29T16:50:46.197Z,101317.22
2023-01-29T16:53:55.576Z,101306.56
2023-01-29T16:57:00.464Z,101290.00
2023-01-29T17:00:07.673Z,101306.06
2023-01-29T17:03:14.771Z,101307.69
2023-01-29T17:06:23.656Z,101301.75
2023-01-29T17:09:34.002Z,101276.53
2023-01-29T17:12:39.128Z,101274.78
2023-01-29T17:15:44.997Z,101304.91
2023-01-29T17:18:48.235Z,101305.25
2023-01-29T17:21:51.371Z,101270.13
2023-01-29T17:24:55.612Z,101304.16
2023-01-29T17:28:01.593Z,101286.44
2023-01-29T17:31:07.855Z,101310.97
2023-01-29T17:34:15.211Z,101304.16
2023-01-29T17:37:18.470Z,101311.19
2023-01-29T17:40:39.559Z,101310.50
2023-01-29T17:43:44.258Z,101305.84
2023-01-29T17:46:47.811Z,101299.97
2023-01-29T17:49:51.112Z,101306.00
2023-01-29T17:52:54.204Z,101311.22
2023-01-29T17:55:57.455Z,101305.09
2023-01-29T17:59:01.006Z,101310.16
2023-01-29T18:02:04.690Z,101294.56
2023-01-29T18:05:08.439Z,101314.66
2023-01-29T18:08:43.727Z,101323.22
2023-01-29T18:11:47.725Z,101318.37
2023-01-29T18:14:50.557Z,101311.22
2023-01-29T18:17:53.794Z,101307.72
2023-01-29T18:20:57.064Z,101297.53
2023-01-29T18:24:00.239Z,101289.22
2023-01-29T18:27:02.832Z,101300.44
2023-01-29T18:30:07.218Z,101288.66
2023-01-29T18:33:10.165Z,101277.94
2023-01-29T18:36:13.722Z,101275.00
2023-01-29T18:39:17.187Z,101283.09
2023-01-29T18:42:20.092Z,101285.44
2023-01-29T18:45:22.963Z,101281.06
2023-01-29T18:48:26.703Z,101273.13
2023-01-29T18:51:29.583Z,101276.44
2023-01-29T18:54:32.756Z,101265.00
2023-01-29T18:58:29.513Z,101275.31
2023-01-29T19:01:09.104Z,101272.94
2023-01-29T19:04:12.369Z,101256.00
2023-01-29T19:07:15.765Z,101272.56
2023-01-29T19:10:18.851Z,101268.03
2023-01-29T19:13:22.665Z,101267.59
2023-01-29T19:16:26.048Z,101262.62
2023-01-29T19:19:29.482Z,101247.19
2023-01-29T19:22:32.724Z,101256.94
2023-01-29T19:25:39.347Z,101260.50
2023-01-29T19:28:42.309Z,101252.47
2023-01-29T19:31:47.142Z,101266.22
2023-01-29T19:34:49.955Z,101267.59
2023-01-29T19:37:53.092Z,101272.38
2023-01-29T19:41:00.096Z,101270.38
2023-01-29T19:44:03.469Z,101241.28
2023-01-29T19:47:06.373Z,101275.38
2023-01-29T19:50:11.088Z,101276.00
2023-01-29T19:53:13.844Z,101282.62
2023-01-29T19:56:18.726Z,101272.28
2023-01-29T19:59:22.267Z,101264.94
2023-01-29T20:02:25.325Z,101262.06
2023-01-29T20:05:28.705Z,101263.94
2023-01-29T20:08:33.144Z,101268.66
2023-01-29T20:11:36.451Z,101265.22
2023-01-29T20:14:43.262Z,101243.03
2023-01-29T20:17:46.264Z,101272.75
2023-01-29T20:20:50.729Z,101271.69
2023-01-29T20:23:54.663Z,101237.03
2023-01-29T20:26:58.457Z,101265.66
2023-01-29T20:30:02.284Z,101257.69
2023-01-29T20:33:06.617Z,101239.91
2023-01-29T20:36:12.675Z,101270.38
2023-01-29T20:39:15.841Z,101250.63
2023-01-29T20:42:20.056Z,101231.25
2023-01-29T20:45:23.313Z,101251.41
2023-01-29T20:48:26.774Z,101260.37
2023-01-29T20:51:30.864Z,101239.53
2023-01-29T20:54:34.583Z,101251.88
2023-01-29T20:57:38.726Z,101242.12
2023-01-29T21:00:41.983Z,101249.78
2023-01-29T21:03:45.536Z,101252.59
2023-01-29T21:06:48.900Z,101249.47
2023-01-29T21:09:51.800Z,101239.84
2023-01-29T21:12:56.033Z,101241.34
2023-01-29T21:15:59.250Z,101220.03
2023-01-29T21:19:03.381Z,101214.38
2023-01-29T21:22:06.308Z,101237.25
2023-01-29T21:25:10.018Z,101243.75
2023-01-29T21:28:12.990Z,101213.50
2023-01-29T21:31:17.063Z,101238.16
2023-01-29T21:34:19.994Z,101209.84
2023-01-29T21:37:23.210Z,101228.81
2023-01-29T21:40:25.902Z,101235.59
2023-01-29T21:43:29.356Z,101212.78
2023-01-29T21:46:32.042Z,101237.28
2023-01-29T21:49:36.452Z,101239.41
2023-01-29T21:52:39.155Z,101241.59
2023-01-29T21:55:42.153Z,101220.28
2023-01-29T21:58:47.458Z,101231.62
2023-01-29T22:01:50.652Z,101234.72
2023-01-29T22:05:08.694Z,101202.19
2023-01-29T22:08:20.609Z,101196.47
2023-01-29T22:11:23.807Z,101224.28
2023-01-29T22:14:26.357Z,101198.06
2023-01-29T22:17:29.173Z,101217.94
2023-01-29T22:20:32.109Z,101204.59
2023-01-29T22:23:35.008Z,101206.72
2023-01-29T22:26:37.881Z,101218.09
2023-01-29T22:29:41.283Z,101186.28
2023-01-29T22:32:44.039Z,101162.37
2023-01-29T22:35:46.945Z,101218.84
2023-01-29T22:38:49.567Z,101215.09
2023-01-29T22:41:52.573Z,101191.97
2023-01-29T22:44:55.363Z,101213.13
2023-01-29T22:47:58.563Z,101205.19
2023-01-29T22:51:10.573Z,101188.84
2023-01-29T22:54:15.499Z,101169.19
2023-01-29T22:57:18.552Z,101187.38
2023-01-29T23:00:21.890Z,101202.25
2023-01-29T23:03:24.575Z,101210.06
2023-01-29T23:06:27.467Z,101197.50
2023-01-29T23:09:30.198Z,101199.50
2023-01-29T23:12:33.220Z,101165.97
2023-01-29T23:15:35.980Z,101193.97
2023-01-29T23:18:39.320Z,101191.56
2023-01-29T23:21:42.117Z,101181.94
2023-01-29T23:24:45.036Z,101182.16
2023-01-29T23:27:47.686Z,101171.06
2023-01-29T23:30:52.192Z,101173.66
2023-01-29T23:33:55.053Z,101168.38
2023-01-29T23:36:58.541Z,101155.91
2023-01-29T23:40:01.259Z,101165.94
2023-01-29T23:43:04.170Z,101153.56
2023-01-29T23:46:06.776Z,101160.94
2023-01-29T23:49:09.858Z,101150.28
2023-01-29T23:52:12.445Z,101149.37
2023-01-29T23:55:15.581Z,101145.66
2023-01-29T23:58:18.145Z,101145.69
